Time;durP1;ratioP1;P1;durP2;ratioP2;P2;SDS_P1;SDS_P2;PMS_P1;PMS_P2;Temp;Humidity;BMP_temperature;BMP_pressure;BME280_temperature;BME280_humidity;BME280_pressure;Samples;Min_cycle;Max_cycle;Signal;HPM_P1;HPM_P2
2023/09/11 00:01:41;;;;;;;2.13;0.93;;;;;;;17.69;75.85;99755.97;5073175;28;20128;-68
2023/09/11 00:04:10;;;;;;;1.20;1.10;;;;;;;17.68;76.16;99759.47;5073365;28;20285;-65
2023/09/11 00:06:39;;;;;;;0.60;0.60;;;;;;;17.65;75.96;99756.97;5073141;28;20048;-67
2023/09/11 00:09:08;;;;;;;0.80;0.80;;;;;;;17.70;75.79;99747.34;5073132;28;20530;-68
2023/09/11 00:11:37;;;;;;;2.15;1.95;;;;;;;17.77;75.68;99746.28;5073070;28;20040;-68
2023/09/11 00:14:06;;;;;;;1.20;1.10;;;;;;;17.75;75.76;99750.66;5073003;28;20106;-66
2023/09/11 00:16:35;;;;;;;0.77;0.75;;;;;;;17.80;75.48;99744.44;5073665;28;20401;-65
2023/09/11 00:19:06;;;;;;;1.10;0.98;;;;;;;17.76;75.56;99742.00;5073242;28;20508;-65
2023/09/11 00:21:35;;;;;;;2.75;1.42;;;;;;;17.67;75.47;99739.69;5073132;28;20040;-65
2023/09/11 00:24:04;;;;;;;1.20;1.00;;;;;;;17.51;75.62;99741.84;5072940;28;20045;-66
2023/09/11 00:26:33;;;;;;;1.80;1.00;;;;;;;17.40;76.01;99746.41;5073258;28;20072;-67
2023/09/11 00:29:02;;;;;;;1.38;0.90;;;;;;;17.27;76.33;99735.63;5073239;28;20071;-68
2023/09/11 00:31:31;;;;;;;2.22;1.58;;;;;;;17.18;76.39;99733.25;5071815;28;20072;-68
2023/09/11 00:34:00;;;;;;;1.17;1.00;;;;;;;17.13;76.92;99734.28;5071624;28;20040;-66
2023/09/11 00:36:30;;;;;;;0.98;0.88;;;;;;;17.11;76.98;99736.88;5072627;28;20056;-65
2023/09/11 00:38:59;;;;;;;3.03;1.98;;;;;;;17.19;76.91;99737.53;5072771;28;20079;-65
2023/09/11 00:41:28;;;;;;;1.27;0.90;;;;;;;17.27;76.94;99738.19;5073096;28;20040;-65
2023/09/11 00:43:57;;;;;;;0.70;0.70;;;;;;;17.24;76.89;99725.38;5071620;28;20127;-65
2023/09/11 00:46:26;;;;;;;2.50;1.27;;;;;;;17.20;77.12;99734.06;5071830;28;20045;-66
2023/09/11 00:48:58;;;;;;;6.30;1.02;;;;;;;17.15;77.13;99728.19;5072770;28;20079;-65
2023/09/11 00:51:28;;;;;;;2.25;1.38;;;;;;;17.12;77.14;99730.84;5071588;28;20182;-65
2023/09/11 00:53:58;;;;;;;1.55;1.45;;;;;;;17.04;77.20;99714.72;5072736;28;20052;-65
2023/09/11 00:56:27;;;;;;;2.47;1.48;;;;;;;16.97;77.50;99715.78;5074794;28;20048;-66
2023/09/11 00:58:57;;;;;;;0.73;0.73;;;;;;;16.95;77.37;99717.56;5076279;28;20052;-68
2023/09/11 01:01:25;;;;;;;;;;;;;;;16.97;77.44;99713.19;5076470;28;20127;-67
2023/09/11 01:03:54;;;;;;;1.10;1.00;;;;;;;16.95;77.67;99720.13;5076077;28;20428;-68
2023/09/11 01:06:23;;;;;;;0.80;0.80;;;;;;;16.91;77.77;99713.38;5076356;28;20071;-66
2023/09/11 01:08:55;;;;;;;0.83;0.83;;;;;;;16.87;77.90;99716.88;5076028;28;20040;-68
2023/09/11 01:11:26;;;;;;;1.20;1.10;;;;;;;16.87;78.22;99716.88;5075051;28;20289;-68
2023/09/11 01:13:56;;;;;;;1.50;1.40;;;;;;;16.93;78.39;99716.75;5075167;28;20048;-66
2023/09/11 01:16:30;;;;;;;1.75;1.45;;;;;;;17.03;78.13;99718.22;5074934;28;20090;-67
2023/09/11 01:19:06;;;;;;;0.75;0.75;;;;;;;17.16;77.47;99727.28;5075885;28;20179;-68
2023/09/11 01:21:55;;;;;;;0.60;0.60;;;;;;;17.23;77.32;99721.09;5074662;28;20044;-67
2023/09/11 01:24:45;;;;;;;1.30;1.20;;;;;;;17.27;77.10;99722.72;5075773;28;20385;-67
2023/09/11 01:27:46;;;;;;;1.02;0.95;;;;;;;17.31;76.80;99719.16;5074454;28;20074;-66
2023/09/11 01:30:18;;;;;;;1.17;1.08;;;;;;;17.34;76.59;99715.66;5074605;28;20045;-65
2023/09/11 01:32:48;;;;;;;2.33;1.90;;;;;;;17.30;76.48;99712.28;5075055;28;20431;-65
2023/09/11 01:35:17;;;;;;;2.70;1.35;;;;;;;17.20;76.52;99710.84;5075396;28;20065;-65
2023/09/11 01:37:46;;;;;;;1.00;0.90;;;;;;;17.28;76.62;99713.22;5074245;28;20041;-66
2023/09/11 01:40:15;;;;;;;0.90;0.90;;;;;;;17.22;76.53;99706.50;5074400;28;20037;-66
2023/09/11 01:42:48;;;;;;;0.60;0.60;;;;;;;17.20;76.69;99705.69;5075985;28;20036;-67
2023/09/11 01:45:19;;;;;;;1.30;0.98;;;;;;;17.16;76.07;99709.25;5075389;28;20075;-66
2023/09/11 01:47:50;;;;;;;1.27;1.17;;;;;;;17.18;76.56;99712.63;5074116;28;20048;-66
2023/09/11 01:50:23;;;;;;;1.35;0.90;;;;;;;17.19;76.47;99709.16;5074103;28;20127;-66
2023/09/11 01:52:52;;;;;;;1.63;1.20;;;;;;;17.26;76.34;99715.00;5075230;28;20044;-66
2023/09/11 01:55:21;;;;;;;;;;;;;;;17.27;76.41;99720.13;5075548;28;20044;-66
2023/09/11 01:57:50;;;;;;;4.72;2.08;;;;;;;17.26;76.06;99721.00;5073919;28;19927;-65
2023/09/11 02:00:21;;;;;;;1.15;0.80;;;;;;;17.28;76.23;99716.66;5074985;28;20107;-66
2023/09/11 02:02:53;;;;;;;1.92;1.33;;;;;;;17.31;76.04;99716.56;5075065;28;20052;-66
2023/09/11 02:05:22;;;;;;;0.98;0.90;;;;;;;17.32;75.96;99720.81;5074712;28;20048;-66
2023/09/11 02:07:51;;;;;;;2.00;1.13;;;;;;;17.30;75.94;99717.44;5074853;28;20052;-66
2023/09/11 02:10:20;;;;;;;0.40;0.40;;;;;;;17.26;75.97;99721.00;5073725;28;20281;-66
2023/09/11 02:12:49;;;;;;;0.60;0.60;;;;;;;17.25;76.21;99713.31;5074804;28;20045;-66
2023/09/11 02:15:18;;;;;;;0.57;0.57;;;;;;;17.23;76.21;99710.75;5074744;28;20047;-66
2023/09/11 02:17:48;;;;;;;0.57;0.57;;;;;;;17.20;76.32;99710.03;5073771;28;20503;-66
2023/09/11 02:20:17;;;;;;;1.35;1.25;;;;;;;17.05;76.29;99711.28;5074610;28;20293;-67
2023/09/11 02:22:47;;;;;;;1.83;1.23;;;;;;;17.00;76.80;99702.81;5074889;28;20058;-66
2023/09/11 02:25:16;;;;;;;2.57;1.53;;;;;;;16.97;76.84;99702.03;5074537;28;20120;-66
2023/09/11 02:27:45;;;;;;;0.95;0.73;;;;;;;17.07;76.70;99703.47;5073225;28;20297;-65
2023/09/11 02:30:14;;;;;;;0.80;0.75;;;;;;;17.10;76.47;99708.56;5074439;28;20044;-65
2023/09/11 02:32:43;;;;;;;2.28;1.10;;;;;;;17.02;76.54;99701.03;5074294;28;20075;-65
2023/09/11 02:35:14;;;;;;;0.70;0.70;;;;;;;17.01;76.99;99699.31;5074296;28;20075;-65
2023/09/11 02:37:44;;;;;;;0.80;0.68;;;;;;;16.98;76.73;99699.44;5073170;28;20051;-66
2023/09/11 02:40:13;;;;;;;0.70;0.70;;;;;;;16.77;76.90;99702.56;5074200;28;20040;-67
2023/09/11 02:42:42;;;;;;;0.68;0.68;;;;;;;16.74;77.23;99698.34;5073005;28;20050;-68
2023/09/11 02:45:11;;;;;;;1.55;1.33;;;;;;;16.71;77.33;99700.13;5072999;28;20056;-68
2023/09/11 02:47:39;;;;;;;0.80;0.80;;;;;;;16.67;77.52;99698.53;5074045;28;20128;-66
2023/09/11 02:50:09;;;;;;;3.53;1.23;;;;;;;16.76;77.49;99693.13;5073165;28;20396;-67
2023/09/11 02:52:39;;;;;;;;;;;;;;;16.69;77.65;99689.00;5073195;28;20386;-66
2023/09/11 02:55:11;;;;;;;0.88;0.88;;;;;;;16.70;77.57;99688.13;5073106;28;20002;-67
2023/09/11 02:57:40;;;;;;;1.58;1.13;;;;;;;16.76;77.40;99690.56;5074015;28;20053;-68
2023/09/11 03:00:10;;;;;;;2.10;1.90;;;;;;;16.74;77.65;99692.31;5072814;28;20446;-65
2023/09/11 03:02:39;;;;;;;1.08;0.95;;;;;;;16.75;77.63;99692.28;5073836;28;20131;-65
2023/09/11 03:05:09;;;;;;;1.63;0.88;;;;;;;16.78;77.60;99686.19;5072693;28;20568;-65
2023/09/11 03:07:40;;;;;;;0.73;0.73;;;;;;;16.79;77.18;99687.03;5072592;28;20040;-66
2023/09/11 03:10:10;;;;;;;1.90;1.52;;;;;;;16.76;77.57;99693.13;5073749;28;20147;-65
2023/09/11 03:12:39;;;;;;;2.00;1.20;;;;;;;16.80;77.43;99691.31;5072857;28;20051;-65
2023/09/11 03:15:09;;;;;;;2.40;1.15;;;;;;;16.78;77.28;99691.34;5073705;28;20044;-65
2023/09/11 03:17:38;;;;;;;1.15;1.05;;;;;;;16.80;77.23;99688.72;5072137;28;20049;-65
2023/09/11 03:20:08;;;;;;;;;;;;;;;16.81;77.25;99693.84;5072769;28;20062;-66
2023/09/11 03:22:37;;;;;;;1.40;1.00;;;;;;;16.79;77.11;99695.63;5072372;28;19959;-66
2023/09/11 03:25:08;;;;;;;0.88;0.85;;;;;;;16.83;77.09;99693.81;5073801;28;20464;-66
2023/09/11 03:27:37;;;;;;;4.43;1.55;;;;;;;16.83;77.18;99699.81;5073825;28;20416;-66
2023/09/11 03:30:08;;;;;;;1.08;1.00;;;;;;;16.83;77.24;99699.81;5072557;28;20041;-66
2023/09/11 03:32:37;;;;;;;1.95;0.63;;;;;;;16.84;77.15;99701.53;5072431;28;20045;-66
2023/09/11 03:35:07;;;;;;;0.75;0.75;;;;;;;16.84;76.86;99696.38;5072053;28;20052;-67
2023/09/11 03:37:37;;;;;;;1.58;1.40;;;;;;;16.86;77.01;99697.16;5073416;28;20055;-66
2023/09/11 03:40:10;;;;;;;1.50;1.20;;;;;;;16.88;77.12;99705.69;5072145;28;20051;-66
2023/09/11 03:42:39;;;;;;;0.88;0.85;;;;;;;16.84;77.03;99698.09;5072175;28;20047;-66
2023/09/11 03:45:09;;;;;;;1.00;0.90;;;;;;;16.80;76.95;99705.03;5072474;28;20377;-66
2023/09/11 03:47:38;;;;;;;2.13;1.83;;;;;;;16.81;77.43;99691.28;5072473;28;20033;-66
2023/09/11 03:50:08;;;;;;;0.70;0.70;;;;;;;16.83;77.17;99688.66;5072092;28;20099;-66
2023/09/11 03:52:37;;;;;;;1.05;0.88;;;;;;;16.83;77.28;99698.97;5073338;28;20079;-67
2023/09/11 03:55:08;;;;;;;1.30;0.83;;;;;;;16.80;77.26;99689.56;5073579;28;20517;-67
2023/09/11 03:57:38;;;;;;;1.15;1.02;;;;;;;16.81;77.35;99695.59;5073614;28;20139;-67
2023/09/11 04:00:08;;;;;;;1.40;1.30;;;;;;;16.82;77.27;99692.94;5071988;28;20044;-66
2023/09/11 04:02:40;;;;;;;1.45;0.90;;;;;;;16.81;77.09;99691.28;5073274;28;20488;-66
2023/09/11 04:05:09;;;;;;;0.80;0.77;;;;;;;16.79;76.84;99687.03;5071992;28;20102;-67
2023/09/11 04:07:38;;;;;;;1.25;1.15;;;;;;;16.83;76.88;99689.50;5071963;28;20051;-66
2023/09/11 04:10:09;;;;;;;1.20;0.88;;;;;;;16.82;77.02;99697.28;5073208;28;20036;-66
2023/09/11 04:12:39;;;;;;;1.05;0.82;;;;;;;16.83;77.05;99699.81;5071876;28;20044;-66
2023/09/11 04:15:08;;;;;;;0.88;0.88;;;;;;;16.83;77.13;99691.22;5073126;28;20065;-67
2023/09/11 04:17:37;;;;;;;0.98;0.80;;;;;;;16.72;77.00;99691.53;5072127;28;20448;-66
2023/09/11 04:20:09;;;;;;;1.13;1.02;;;;;;;16.71;76.92;99687.25;5071819;28;20037;-67
2023/09/11 04:22:38;;;;;;;0.80;0.63;;;;;;;16.61;77.44;99688.34;5071802;28;20040;-67
2023/09/11 04:25:09;;;;;;;1.42;1.33;;;;;;;16.54;77.63;99689.38;5071817;28;20493;-67
2023/09/11 04:27:38;;;;;;;1.65;1.42;;;;;;;16.51;77.92;99692.88;5071860;28;20123;-66
2023/09/11 04:30:08;;;;;;;1.55;1.38;;;;;;;16.45;77.87;99687.00;5074851;28;20427;-66
2023/09/11 04:32:37;;;;;;;1.10;1.00;;;;;;;16.40;78.22;99692.28;5076673;28;20049;-66
2023/09/11 04:35:07;;;;;;;1.23;1.13;;;;;;;16.51;78.58;99686.84;5075404;28;20493;-67
2023/09/11 04:37:37;;;;;;;1.27;0.93;;;;;;;16.59;78.31;99690.97;5075465;28;20045;-67
2023/09/11 04:40:09;;;;;;;4.38;1.10;;;;;;;16.51;78.42;99687.72;5075713;28;20139;-66
2023/09/11 04:42:38;;;;;;;2.30;2.10;;;;;;;16.54;78.30;99684.22;5058550;28;20547;-66
2023/09/11 04:45:08;;;;;;;1.20;1.10;;;;;;;16.60;78.40;99681.53;5076404;28;20066;-67
2023/09/11 04:47:38;;;;;;;2.22;1.77;;;;;;;16.53;78.40;99679.97;5075613;28;20048;-66
2023/09/11 04:50:07;;;;;;;3.28;1.23;;;;;;;16.51;78.49;99676.53;5076641;28;20040;-66
2023/09/11 04:52:36;;;;;;;2.83;1.75;;;;;;;16.46;78.98;99678.41;5075104;28;20048;-66
2023/09/11 04:55:06;;;;;;;1.55;1.38;;;;;;;16.41;79.02;99681.06;5075158;28;20040;-67
2023/09/11 04:57:39;;;;;;;1.35;1.25;;;;;;;16.44;79.36;99685.31;5076418;28;20380;-67
2023/09/11 05:00:10;;;;;;;1.98;1.77;;;;;;;16.51;79.52;99687.72;5075063;28;20071;-66
2023/09/11 05:02:42;;;;;;;1.10;0.98;;;;;;;16.55;79.63;99683.38;5076109;28;20040;-67
2023/09/11 05:05:11;;;;;;;2.50;1.75;;;;;;;16.54;79.65;99677.34;5074899;28;20044;-66
2023/09/11 05:07:42;;;;;;;1.40;1.30;;;;;;;16.60;80.10;99673.78;5074868;28;20076;-67
2023/09/11 05:10:14;;;;;;;0.75;0.65;;;;;;;16.65;79.90;99679.69;5075128;28;20044;-66
2023/09/11 05:12:47;;;;;;;1.10;1.00;;;;;;;16.70;79.87;99683.81;5076259;28;20103;-67
2023/09/11 05:15:16;;;;;;;0.98;0.80;;;;;;;16.67;79.69;99676.19;5074786;28;20045;-67
2023/09/11 05:17:45;;;;;;;18.80;2.13;;;;;;;16.76;80.00;99682.81;5074640;28;20055;-66
2023/09/11 05:20:14;;;;;;;1.45;1.25;;;;;;;16.93;79.65;99682.38;5076447;28;20396;-66
2023/09/11 05:22:43;;;;;;;1.08;0.95;;;;;;;16.97;79.20;99682.25;5075730;28;20044;-66
2023/09/11 05:25:12;;;;;;;2.73;1.53;;;;;;;17.00;78.92;99686.47;5075966;28;20373;-67
2023/09/11 05:27:41;;;;;;;1.60;1.33;;;;;;;17.05;78.44;99685.47;5076395;28;20285;-66
2023/09/11 05:30:12;;;;;;;1.90;1.45;;;;;;;17.08;78.31;99677.66;5075661;28;20051;-66
2023/09/11 05:32:42;;;;;;;1.20;1.10;;;;;;;17.13;78.11;99680.94;5076152;28;20048;-66
2023/09/11 05:35:11;;;;;;;1.75;1.48;;;;;;;17.24;77.77;99676.34;5075283;28;20123;-66
2023/09/11 05:37:40;;;;;;;3.85;1.55;;;;;;;17.32;77.65;99676.97;5075572;28;20067;-65
2023/09/11 05:40:09;;;;;;;5.43;1.70;;;;;;;17.46;77.24;99681.75;5075404;28;20041;-67
2023/09/11 05:42:38;;;;;;;1.35;1.20;;;;;;;17.60;77.11;99673.63;5075370;28;20045;-67
2023/09/11 05:45:08;;;;;;;1.10;1.00;;;;;;;17.70;76.91;99678.50;5075250;28;20509;-66
2023/09/11 05:47:39;;;;;;;1.25;1.15;;;;;;;17.77;76.54;99671.41;5075129;28;20270;-65
2023/09/11 05:50:09;;;;;;;0.95;0.93;;;;;;;17.89;76.04;99676.19;5075288;28;20135;-66
2023/09/11 05:52:38;;;;;;;2.10;1.45;;;;;;;17.95;75.64;99679.44;5075371;28;20036;-66
2023/09/11 05:55:08;;;;;;;1.50;1.37;;;;;;;18.02;75.36;99677.50;5075033;28;20041;-66
2023/09/11 05:57:37;;;;;;;1.27;1.17;;;;;;;18.03;75.05;99680.06;5075149;28;20041;-67
2023/09/11 06:00:12;;;;;;;0.80;0.80;;;;;;;18.09;74.69;99679.03;5068599;28;20036;-65
2023/09/11 06:02:45;;;;;;;1.10;1.00;;;;;;;18.15;74.71;99672.81;5068983;28;20503;-67
2023/09/11 06:05:16;;;;;;;2.35;1.13;;;;;;;18.21;74.55;99678.63;5075010;28;20056;-66
2023/09/11 06:07:45;;;;;;;1.20;1.10;;;;;;;18.31;74.38;99682.59;5074901;28;20058;-66
2023/09/11 06:10:15;;;;;;;0.60;0.60;;;;;;;18.42;74.35;99677.94;5073912;28;20407;-66
2023/09/11 06:12:44;;;;;;;0.80;0.80;;;;;;;18.52;74.16;99676.75;5073924;28;20053;-66
2023/09/11 06:15:13;;;;;;;2.30;1.77;;;;;;;18.65;73.97;99675.47;5074727;28;20044;-65
2023/09/11 06:17:43;;;;;;;1.20;0.95;;;;;;;18.78;73.77;99681.09;5074717;28;20064;-65
2023/09/11 06:20:15;;;;;;;2.25;1.70;;;;;;;18.93;73.57;99675.34;5072789;28;20048;-66
2023/09/11 06:22:45;;;;;;;0.80;0.80;;;;;;;19.06;73.53;99675.78;5074556;28;20048;-65
2023/09/11 06:25:15;;;;;;;1.90;1.37;;;;;;;19.22;73.41;99663.97;5074551;28;20049;-65
2023/09/11 06:27:44;;;;;;;1.73;1.35;;;;;;;19.32;73.28;99667.94;5074832;28;20052;-66
2023/09/11 06:30:13;;;;;;;1.20;1.00;;;;;;;19.42;72.87;99674.50;5074127;28;20392;-65
2023/09/11 06:32:43;;;;;;;3.13;2.30;;;;;;;19.52;72.41;99670.69;5074288;28;20051;-66
2023/09/11 06:35:12;;;;;;;2.70;1.73;;;;;;;19.60;71.82;99680.75;5074631;28;20048;-65
2023/09/11 06:37:41;;;;;;;1.13;1.03;;;;;;;19.70;71.51;99674.34;5074589;28;20048;-65
2023/09/11 06:40:12;;;;;;;1.25;1.15;;;;;;;19.84;71.31;99667.69;5073571;28;20449;-65
2023/09/11 06:42:41;;;;;;;2.97;1.40;;;;;;;19.98;71.08;99670.63;5074517;28;20066;-66
2023/09/11 06:45:10;;;;;;;1.57;1.47;;;;;;;20.07;70.53;99669.41;5074129;28;20051;-65
2023/09/11 06:47:39;;;;;;;1.23;0.88;;;;;;;20.15;70.32;99674.28;5072238;28;20029;-65
2023/09/11 06:50:11;;;;;;;1.08;0.98;;;;;;;20.29;70.34;99669.44;5070350;28;20071;-66
2023/09/11 06:52:40;;;;;;;1.42;1.33;;;;;;;20.44;69.85;99672.22;5071812;28;20048;-66
2023/09/11 06:55:10;;;;;;;2.33;2.13;;;;;;;20.52;69.42;99677.09;5070632;28;20094;-66
2023/09/11 06:57:42;;;;;;;1.05;0.95;;;;;;;20.62;69.30;99679.25;5069725;28;20557;-65
2023/09/11 07:00:13;;;;;;;0.60;0.60;;;;;;;20.77;68.70;99682.97;5073958;28;20051;-65
2023/09/11 07:02:49;;;;;;;1.75;1.40;;;;;;;20.88;68.12;99680.75;5073803;28;20049;-65
2023/09/11 07:05:21;;;;;;;1.27;1.10;;;;;;;21.04;67.91;99681.78;5072755;28;20102;-65
2023/09/11 07:07:50;;;;;;;1.40;1.30;;;;;;;21.16;67.06;99678.69;5072849;28;20486;-65
2023/09/11 07:10:19;;;;;;;0.70;0.70;;;;;;;21.26;66.83;99677.38;5074026;28;20072;-65
2023/09/11 07:13:08;;;;;;;1.92;1.73;;;;;;;21.36;66.53;99676.06;5073682;28;20045;-65
2023/09/11 07:15:37;;;;;;;2.92;0.85;;;;;;;21.50;66.10;99670.22;5072637;28;20167;-65
2023/09/11 07:18:06;;;;;;;3.45;1.35;;;;;;;21.62;65.50;99674.88;5072824;28;20050;-65
2023/09/11 07:20:36;;;;;;;1.23;1.13;;;;;;;21.74;65.45;99673.50;5073521;28;20050;-65
2023/09/11 07:23:05;;;;;;;6.45;1.35;;;;;;;21.82;64.99;99666.16;5073586;28;20051;-65
2023/09/11 07:25:34;;;;;;;1.25;0.75;;;;;;;21.91;64.78;99670.94;5072755;28;20082;-65
2023/09/11 07:28:03;;;;;;;;;;;;;;;22.00;64.76;99676.56;5073083;28;20111;-65
2023/09/11 07:30:32;;;;;;;1.00;0.90;;;;;;;22.11;65.02;99668.25;5073552;28;19928;-65
2023/09/11 07:33:01;;;;;;;2.22;1.60;;;;;;;22.27;64.97;99669.19;5073514;28;20071;-65
2023/09/11 07:35:30;;;;;;;0.77;0.77;;;;;;;22.35;64.05;99674.88;5073217;28;20482;-65
2023/09/11 07:38:01;;;;;;;0.90;0.82;;;;;;;22.47;63.75;99676.03;5071587;28;20052;-65
2023/09/11 07:40:30;;;;;;;1.10;0.93;;;;;;;22.58;63.29;99677.19;5073374;28;20518;-65
2023/09/11 07:42:59;;;;;;;2.08;1.88;;;;;;;22.66;62.95;99672.47;5073325;28;20045;-66
2023/09/11 07:45:28;;;;;;;2.22;1.08;;;;;;;22.74;62.73;99671.25;5071416;28;20399;-66
2023/09/11 07:47:56;;;;;;;1.97;1.77;;;;;;;22.92;62.64;99672.91;5073355;28;20071;-65
2023/09/11 07:50:25;;;;;;;0.90;0.90;;;;;;;22.99;61.85;99675.13;5073428;28;20676;-66
2023/09/11 07:52:54;;;;;;;1.15;1.05;;;;;;;23.07;61.56;99678.19;5073255;28;20040;-66
2023/09/11 07:55:25;;;;;;;2.83;1.13;;;;;;;23.09;61.27;99672.88;5072168;28;20066;-66
2023/09/11 07:57:56;;;;;;;1.33;1.20;;;;;;;23.19;61.50;99674.09;5072429;28;20041;-66
2023/09/11 08:00:30;;;;;;;2.33;1.83;;;;;;;23.32;61.25;99672.53;5071443;28;20054;-66
2023/09/11 08:02:59;;;;;;;0.50;0.50;;;;;;;23.44;61.63;99665.88;5053033;28;20061;-66
2023/09/11 08:05:28;;;;;;;1.00;0.90;;;;;;;23.59;61.10;99663.25;5057109;28;20496;-66
2023/09/11 08:08:01;;;;;;;2.10;1.83;;;;;;;23.74;60.43;99654.63;5077380;28;20492;-66
2023/09/11 08:10:31;;;;;;;1.88;0.98;;;;;;;23.84;59.89;99663.63;5077125;28;20048;-66
2023/09/11 08:13:00;;;;;;;1.65;1.15;;;;;;;23.93;59.56;99654.44;5077093;28;20059;-66
2023/09/11 08:15:32;;;;;;;3.60;2.10;;;;;;;24.07;59.81;99662.38;5075909;28;20075;-66
2023/09/11 08:18:01;;;;;;;1.67;1.20;;;;;;;24.19;59.67;99658.22;5076939;28;20047;-66
2023/09/11 08:20:29;;;;;;;2.03;1.55;;;;;;;24.30;58.84;99659.31;5076141;28;20044;-66
2023/09/11 08:22:58;;;;;;;10.93;4.97;;;;;;;24.37;58.73;99657.19;5076827;28;20051;-67
2023/09/11 08:25:27;;;;;;;2.10;1.73;;;;;;;24.54;59.17;99657.91;5076705;28;20048;-67
2023/09/11 08:27:58;;;;;;;1.95;1.20;;;;;;;24.67;58.86;99655.41;5074313;28;20036;-66
2023/09/11 08:30:26;;;;;;;0.60;0.60;;;;;;;24.75;58.11;99650.56;5076710;28;20139;-67
2023/09/11 08:32:55;;;;;;;1.10;0.90;;;;;;;24.92;57.97;99655.66;5075543;28;20094;-66
2023/09/11 08:35:24;;;;;;;0.98;0.80;;;;;;;25.09;57.58;99650.28;5074321;28;20056;-67
2023/09/11 08:37:53;;;;;;;1.55;1.27;;;;;;;25.22;56.99;99651.19;5076608;28;20045;-67
2023/09/11 08:40:26;;;;;;;0.70;0.70;;;;;;;25.36;56.82;99647.75;5076827;28;20091;-67
2023/09/11 08:42:55;;;;;;;1.88;1.20;;;;;;;25.47;56.06;99650.56;5076284;28;20522;-70
2023/09/11 08:45:26;;;;;;;1.05;0.88;;;;;;;25.47;55.84;99644.50;5075193;28;20395;-66
2023/09/11 08:47:57;;;;;;;0.98;0.88;;;;;;;25.57;55.68;99645.59;5076441;28;20411;-67
2023/09/11 08:50:33;;;;;;;0.93;0.80;;;;;;;25.65;55.45;99640.75;5076350;28;20054;-67
2023/09/11 08:53:03;;;;;;;7.55;1.77;;;;;;;25.75;54.93;99647.03;5076236;28;20127;-67
2023/09/11 08:55:34;;;;;;;4.30;1.45;;;;;;;25.85;54.62;99645.53;5075104;28;20048;-67
2023/09/11 08:58:10;;;;;;;0.60;0.60;;;;;;;25.96;53.81;99645.69;5076601;28;20133;-67
2023/09/11 09:00:40;;;;;;;1.48;1.17;;;;;;;26.11;53.75;99647.34;5076488;28;20071;-67
2023/09/11 09:03:10;;;;;;;0.88;0.85;;;;;;;26.19;53.76;99644.22;5075277;28;20439;-67
2023/09/11 09:05:40;;;;;;;0.70;0.70;;;;;;;26.31;52.93;99644.28;5074796;28;20033;-67
2023/09/11 09:08:14;;;;;;;1.35;1.15;;;;;;;26.39;53.37;99647.25;5076661;28;20036;-67
2023/09/11 09:10:44;;;;;;;0.90;0.85;;;;;;;26.56;54.04;99644.31;5076042;28;20091;-67
2023/09/11 09:13:12;;;;;;;0.77;0.77;;;;;;;26.79;53.47;99644.59;5075900;28;20052;-67
2023/09/11 09:15:44;;;;;;;1.48;1.30;;;;;;;26.74;52.89;99636.16;5073485;28;20079;-67
2023/09/11 09:18:13;;;;;;;0.70;0.70;;;;;;;26.78;52.79;99637.69;5075899;28;20518;-67
2023/09/11 09:20:42;;;;;;;1.00;0.93;;;;;;;27.11;53.19;99628.31;5075908;28;20045;-67
2023/09/11 09:23:12;;;;;;;1.98;1.75;;;;;;;27.19;52.32;99633.03;5075779;28;20037;-67
2023/09/11 09:25:41;;;;;;;0.73;0.73;;;;;;;27.20;51.14;99624.25;5074872;28;20048;-67
2023/09/11 09:28:28;;;;;;;1.48;0.95;;;;;;;27.33;51.29;99627.66;5075928;28;20041;-68
2023/09/11 09:31:06;;;;;;;1.80;1.13;;;;;;;27.44;50.09;99617.31;5076081;28;20408;-67
2023/09/11 09:33:36;;;;;;;1.08;0.98;;;;;;;27.57;49.75;99614.66;5073578;28;20045;-68
2023/09/11 09:36:07;;;;;;;1.55;1.20;;;;;;;27.70;49.47;99616.28;5072821;28;20052;-67
2023/09/11 09:38:36;;;;;;;1.15;1.02;;;;;;;27.76;49.28;99613.19;5073012;28;20060;-68
2023/09/11 09:41:11;;;;;;;1.00;0.90;;;;;;;27.89;49.32;99614.00;5075402;28;20131;-66
2023/09/11 09:43:40;;;;;;;0.75;0.65;;;;;;;27.96;48.88;99609.13;5075406;28;20400;-68
2023/09/11 09:46:20;;;;;;;0.68;0.68;;;;;;;28.08;48.57;99608.25;5072453;28;20093;-68
2023/09/11 09:48:49;;;;;;;0.77;0.77;;;;;;;28.13;48.05;99597.41;5074497;28;20045;-68
2023/09/11 09:51:20;;;;;;;0.70;0.70;;;;;;;28.16;48.05;99605.91;5075288;28;20139;-67
2023/09/11 09:53:54;;;;;;;1.77;1.33;;;;;;;28.17;47.71;99601.50;5074701;28;20507;-67
2023/09/11 09:56:23;;;;;;;0.85;0.85;;;;;;;28.21;47.77;99592.44;5075479;28;20164;-67
2023/09/11 09:58:52;;;;;;;;;;;;;;;28.29;47.23;99590.09;5075833;28;20064;-68
2023/09/11 10:01:24;;;;;;;1.52;1.08;;;;;;;28.41;47.12;99594.44;5075036;28;20003;-67
2023/09/11 10:03:54;;;;;;;1.10;1.00;;;;;;;28.42;46.81;99586.44;5072446;28;20044;-68
2023/09/11 10:06:26;;;;;;;1.42;1.17;;;;;;;28.44;45.90;99595.03;5075152;28;20041;-69
2023/09/11 10:09:07;;;;;;;0.73;0.70;;;;;;;28.44;45.63;99583.66;5075309;28;20082;-67
2023/09/11 10:11:38;;;;;;;3.00;1.52;;;;;;;28.43;44.85;99577.56;5075233;28;20045;-68
2023/09/11 10:14:09;;;;;;;0.70;0.70;;;;;;;28.56;44.80;99582.75;5074463;28;20056;-68
2023/09/11 10:16:39;;;;;;;2.25;1.40;;;;;;;28.61;45.46;99570.13;5074740;28;20431;-68
2023/09/11 10:19:09;;;;;;;1.83;1.17;;;;;;;28.59;45.35;99572.00;5074683;28;20117;-68
2023/09/11 10:21:39;;;;;;;2.08;1.30;;;;;;;28.76;45.68;99578.63;5074979;28;20048;-67
2023/09/11 10:24:10;;;;;;;4.50;1.02;;;;;;;28.88;45.42;99568.00;5074354;28;20044;-67
2023/09/11 10:26:46;;;;;;;2.80;1.70;;;;;;;29.02;45.58;99565.13;5074135;28;20045;-67
2023/09/11 10:29:23;;;;;;;1.15;1.05;;;;;;;29.06;44.67;99563.09;5072573;28;20043;-66
2023/09/11 10:32:00;;;;;;;0.75;0.75;;;;;;;29.02;44.27;99562.50;5073780;28;20036;-66
2023/09/11 10:34:29;;;;;;;0.80;0.77;;;;;;;29.04;44.08;99557.13;5074417;28;20057;-67
2023/09/11 10:37:00;;;;;;;1.98;1.75;;;;;;;29.15;44.36;99550.06;5071979;28;20492;-67
2023/09/11 10:39:29;;;;;;;1.65;1.40;;;;;;;29.27;44.22;99544.81;5071037;28;20041;-68
2023/09/11 10:42:01;;;;;;;1.60;1.05;;;;;;;29.33;43.94;99554.84;5074267;28;20480;-68
2023/09/11 10:44:30;;;;;;;0.80;0.80;;;;;;;29.31;43.25;99554.13;5074491;28;20098;-67
2023/09/11 10:47:04;;;;;;;0.80;0.80;;;;;;;29.35;43.25;99545.03;5074138;28;20041;-68
2023/09/11 10:49:40;;;;;;;0.90;0.80;;;;;;;29.52;43.22;99552.41;5072985;28;20045;-67
2023/09/11 10:52:12;;;;;;;0.70;0.70;;;;;;;29.74;43.70;99553.19;5073745;28;20043;-67
2023/09/11 10:54:41;;;;;;;1.63;1.00;;;;;;;29.79;43.15;99544.94;5073997;28;20041;-67
2023/09/11 10:57:10;;;;;;;1.35;1.15;;;;;;;29.83;43.23;99541.09;5074006;28;20055;-68
2023/09/11 10:59:40;;;;;;;1.00;0.70;;;;;;;29.88;42.47;99544.19;5072936;28;20396;-68
2023/09/11 11:02:10;;;;;;;1.00;0.75;;;;;;;29.88;42.69;99538.06;5073074;28;20052;-68
2023/09/11 11:04:41;;;;;;;1.27;1.17;;;;;;;29.99;42.70;99535.41;5073181;28;20040;-67
2023/09/11 11:07:10;;;;;;;1.15;1.05;;;;;;;29.97;42.16;99543.41;5073605;28;20045;-67
2023/09/11 11:09:41;;;;;;;0.88;0.80;;;;;;;29.94;42.01;99538.44;5073743;28;20048;-67
2023/09/11 11:12:15;;;;;;;0.55;0.55;;;;;;;30.00;42.33;99532.63;5073116;28;20044;-67
2023/09/11 11:14:44;;;;;;;3.30;1.38;;;;;;;30.05;42.59;99530.47;5072963;28;20500;-67
2023/09/11 11:17:17;;;;;;;0.68;0.68;;;;;;;30.08;42.07;99529.38;5073657;28;20051;-66
2023/09/11 11:19:53;;;;;;;0.60;0.60;;;;;;;30.04;41.47;99523.53;5073666;28;20047;-68
2023/09/11 11:22:31;;;;;;;0.60;0.60;;;;;;;30.12;41.84;99521.09;5072418;28;20048;-68
2023/09/11 11:25:03;;;;;;;1.58;1.38;;;;;;;30.35;41.70;99525.28;5073533;28;20044;-68
2023/09/11 11:27:32;;;;;;;0.88;0.70;;;;;;;30.36;40.60;99508.53;5073578;28;20056;-67
2023/09/11 11:30:01;;;;;;;;;;;;;;;30.30;39.95;99516.94;5073904;28;20047;-68
2023/09/11 11:32:34;;;;;;;1.10;1.00;;;;;;;30.28;39.89;99520.66;5071596;28;19921;-69
2023/09/11 11:35:07;;;;;;;1.60;1.27;;;;;;;30.29;39.88;99509.97;5072325;28;20036;-68
2023/09/11 11:37:38;;;;;;;0.82;0.82;;;;;;;30.34;39.79;99510.44;5072615;28;20124;-67
2023/09/11 11:40:09;;;;;;;1.45;1.10;;;;;;;30.39;40.00;99508.28;5072913;28;20127;-67
2023/09/11 11:42:38;;;;;;;4.03;1.30;;;;;;;30.42;39.20;99505.38;5072434;28;20127;-67
2023/09/11 11:45:08;;;;;;;1.15;1.05;;;;;;;30.54;38.70;99511.41;5073354;28;20075;-67
2023/09/11 11:47:39;;;;;;;2.83;1.00;;;;;;;30.60;38.72;99508.22;5073622;28;20385;-66
2023/09/11 11:50:09;;;;;;;1.85;1.30;;;;;;;30.64;39.12;99506.16;5072073;28;20056;-67